createdAt,value
2018-05-13T00:00:41.812Z,8.60
2018-05-13T00:03:14.273Z,9.43
2018-05-13T00:05:44.950Z,9.03
2018-05-13T00:08:16.152Z,11.00
2018-05-13T00:10:46.589Z,10.47
2018-05-13T00:13:17.009Z,9.40
2018-05-13T00:15:46.668Z,9.50
2018-05-13T00:18:17.246Z,10.23
2018-05-13T00:20:47.624Z,10.73
2018-05-13T00:23:19.950Z,9.90
2018-05-13T00:25:50.344Z,11.70
2018-05-13T00:28:21.533Z,10.50
2018-05-13T00:30:52.144Z,9.90
2018-05-13T00:33:22.508Z,10.33
2018-05-13T00:35:52.229Z,9.70
2018-05-13T00:38:21.972Z,10.13
2018-05-13T00:40:52.395Z,10.40
2018-05-13T00:43:23.881Z,10.77
2018-05-13T00:45:53.817Z,9.50
2018-05-13T00:48:24.320Z,10.47
2018-05-13T00:50:54.178Z,10.53
2018-05-13T00:53:24.665Z,10.60
2018-05-13T00:55:56.206Z,10.77
2018-05-13T00:58:26.690Z,10.80
2018-05-13T01:00:57.581Z,9.90
2018-05-13T01:03:29.736Z,10.50
2018-05-13T01:05:59.685Z,9.43
2018-05-13T01:08:30.122Z,9.27
2018-05-13T01:11:01.349Z,10.07
2018-05-13T01:13:31.460Z,10.53
2018-05-13T01:16:02.520Z,10.47
2018-05-13T01:18:32.383Z,9.53
2018-05-13T01:21:02.784Z,9.70
2018-05-13T01:23:33.234Z,10.40
2018-05-13T01:26:05.794Z,10.30
2018-05-13T01:28:37.122Z,9.50
2018-05-13T01:31:07.128Z,9.60
2018-05-13T01:33:37.877Z,9.60
2018-05-13T01:36:08.487Z,10.57
2018-05-13T01:38:38.238Z,11.10
2018-05-13T01:41:09.609Z,11.13
2018-05-13T01:43:40.855Z,10.53
2018-05-13T01:46:11.584Z,10.23
2018-05-13T01:48:41.937Z,10.23
2018-05-13T01:51:14.322Z,9.60
2018-05-13T01:53:44.542Z,9.73
2018-05-13T01:56:15.111Z,9.80
2018-05-13T01:58:45.865Z,10.00
2018-05-13T02:01:16.373Z,8.20
2018-05-13T02:03:47.034Z,7.93
2018-05-13T02:06:17.306Z,8.30
2018-05-13T02:08:47.222Z,8.23
2018-05-13T02:11:19.545Z,9.27
2018-05-13T02:13:50.894Z,8.40
2018-05-13T02:16:22.278Z,8.37
2018-05-13T02:18:52.671Z,8.90
2018-05-13T02:21:23.304Z,7.50
2018-05-13T02:23:52.904Z,9.20
2018-05-13T02:26:23.492Z,8.20
2018-05-13T02:28:54.715Z,10.20
2018-05-13T02:31:25.523Z,8.20
2018-05-13T02:33:56.707Z,9.40
2018-05-13T02:36:26.389Z,7.90
2018-05-13T02:38:57.241Z,8.83
2018-05-13T02:41:27.498Z,8.50
2018-05-13T02:43:58.829Z,8.30
2018-05-13T02:46:29.841Z,9.37
2018-05-13T02:49:00.493Z,7.77
2018-05-13T02:51:31.049Z,8.20
2018-05-13T02:54:02.213Z,8.10
2018-05-13T02:56:32.477Z,8.63
2018-05-13T02:59:02.852Z,7.77
2018-05-13T03:01:34.192Z,7.67
2018-05-13T03:04:06.929Z,7.70
2018-05-13T03:06:38.408Z,8.27
2018-05-13T03:09:10.901Z,9.60
2018-05-13T03:11:44.433Z,9.30
2018-05-13T03:14:14.729Z,10.30
2018-05-13T03:16:45.345Z,9.77
2018-05-13T03:19:16.761Z,8.63
2018-05-13T03:21:47.239Z,9.50
2018-05-13T03:24:17.644Z,11.27
2018-05-13T03:26:50.678Z,10.47
2018-05-13T03:29:23.130Z,10.73
2018-05-13T03:31:54.484Z,11.23
2018-05-13T03:34:25.862Z,12.40
2018-05-13T03:36:56.303Z,10.93
2018-05-13T03:39:26.550Z,12.67
2018-05-13T03:41:56.371Z,11.50
2018-05-13T03:44:26.760Z,11.70
2018-05-13T03:46:57.163Z,12.30
2018-05-13T03:49:27.163Z,12.30
2018-05-13T03:51:58.559Z,11.77
2018-05-13T03:54:28.346Z,12.30
2018-05-13T03:57:00.730Z,12.07
2018-05-13T03:59:30.666Z,11.10
2018-05-13T04:02:01.474Z,11.20
2018-05-13T04:04:33.728Z,10.07
2018-05-13T04:07:04.007Z,11.13
2018-05-13T04:09:45.191Z,10.00
2018-05-13T04:12:27.254Z,10.57
2018-05-13T04:15:08.620Z,10.70
2018-05-13T04:17:41.115Z,10.57
2018-05-13T04:20:13.297Z,10.93
2018-05-13T04:22:47.235Z,9.40
2018-05-13T04:25:17.881Z,10.73
2018-05-13T04:27:47.742Z,9.97
2018-05-13T04:30:18.046Z,10.50
2018-05-13T04:32:50.507Z,11.50
2018-05-13T04:35:22.790Z,11.27
2018-05-13T04:37:55.801Z,11.23
2018-05-13T04:40:28.089Z,12.27
2018-05-13T04:42:58.815Z,12.10
2018-05-13T04:45:31.165Z,13.50
2018-05-13T04:48:03.570Z,13.57
2018-05-13T04:50:35.208Z,13.47
2018-05-13T04:53:05.549Z,14.02
2018-05-13T04:55:38.470Z,13.50
2018-05-13T04:58:09.020Z,13.57
2018-05-13T05:00:39.484Z,12.90
2018-05-13T05:03:10.315Z,12.45
2018-05-13T05:05:42.512Z,13.33
2018-05-13T05:08:13.208Z,13.73
2018-05-13T05:10:43.508Z,13.27
2018-05-13T05:13:14.068Z,12.87
2018-05-13T05:15:44.610Z,13.37
2018-05-13T05:18:15.241Z,14.43
2018-05-13T05:20:46.449Z,14.67
2018-05-13T05:23:16.784Z,14.67
2018-05-13T05:25:49.132Z,16.57
2018-05-13T05:28:19.521Z,15.07
2018-05-13T05:30:50.880Z,16.40
2018-05-13T05:33:20.756Z,16.60
2018-05-13T05:35:53.353Z,17.37
2018-05-13T05:38:26.598Z,17.80
2018-05-13T05:40:56.694Z,19.30
2018-05-13T05:43:27.250Z,19.23
2018-05-13T05:46:01.871Z,19.70
2018-05-13T05:48:32.313Z,19.77
2018-05-13T05:51:02.742Z,20.43
2018-05-13T05:53:34.490Z,21.07
2018-05-13T05:56:06.850Z,20.20
2018-05-13T05:58:37.400Z,19.90
2018-05-13T06:01:09.813Z,19.67
2018-05-13T06:03:41.686Z,21.70
2018-05-13T06:06:11.457Z,22.20
2018-05-13T06:08:42.027Z,22.77
2018-05-13T06:11:13.055Z,20.20
2018-05-13T06:13:44.216Z,24.67
2018-05-13T06:16:14.299Z,25.10
2018-05-13T06:18:46.807Z,24.37
2018-05-13T06:21:16.572Z,24.93
2018-05-13T06:23:49.375Z,25.40
2018-05-13T06:26:20.289Z,26.33
2018-05-13T06:28:52.810Z,28.30
2018-05-13T06:31:26.582Z,24.67
2018-05-13T06:33:58.610Z,29.33
2018-05-13T06:36:30.903Z,28.40
2018-05-13T06:39:00.636Z,27.30
2018-05-13T06:41:31.394Z,27.07
2018-05-13T06:44:01.351Z,26.90
2018-05-13T06:46:30.731Z,26.00
2018-05-13T07:17:10.840Z,30.53
2018-05-13T07:19:44.509Z,29.00
2018-05-13T07:22:14.459Z,29.63
2018-05-13T07:24:44.153Z,31.20
2018-05-13T07:27:14.694Z,32.03
2018-05-13T07:29:45.802Z,31.33
2018-05-13T07:32:16.069Z,33.87
2018-05-13T07:34:46.595Z,32.60
2018-05-13T07:37:16.846Z,33.50
2018-05-13T07:39:47.533Z,34.97
2018-05-13T07:42:17.852Z,35.17
2018-05-13T07:44:47.762Z,35.90
2018-05-13T07:47:22.867Z,35.30
2018-05-13T07:49:54.688Z,39.23
2018-05-13T07:52:26.539Z,35.77
2018-05-13T07:54:59.728Z,34.20
2018-05-13T07:57:31.522Z,35.80
2018-05-13T08:00:01.681Z,36.00
2018-05-13T08:02:32.090Z,38.90
2018-05-13T08:05:01.803Z,38.60
2018-05-13T08:07:33.484Z,41.40
2018-05-13T08:10:06.927Z,41.93
2018-05-13T08:12:39.176Z,43.60
2018-05-13T08:15:09.557Z,43.97
2018-05-13T08:17:39.486Z,43.53
2018-05-13T08:20:11.485Z,46.40
2018-05-13T08:22:41.694Z,44.72
2018-05-13T08:25:13.698Z,45.90
2018-05-13T08:27:44.700Z,50.25
2018-05-13T08:30:15.593Z,50.80
2018-05-13T08:32:46.180Z,52.33
2018-05-13T08:35:16.367Z,51.83
2018-05-13T08:37:49.095Z,54.67
2018-05-13T08:40:19.529Z,54.03
2018-05-13T08:42:49.819Z,55.95
2018-05-13T08:45:19.878Z,53.75
2018-05-13T08:47:52.037Z,57.83
2018-05-13T08:50:21.974Z,54.42
2018-05-13T08:52:52.249Z,56.05
2018-05-13T08:55:22.190Z,57.70
2018-05-13T08:57:52.071Z,58.78
2018-05-13T09:00:22.156Z,58.47
2018-05-13T09:02:52.386Z,59.90
2018-05-13T09:05:22.928Z,58.40
2018-05-13T09:07:54.722Z,61.30
2018-05-13T09:10:25.120Z,62.45
2018-05-13T09:12:55.284Z,64.25
2018-05-13T09:15:25.842Z,60.00
2018-05-13T09:17:56.055Z,63.22
2018-05-13T09:20:26.310Z,63.60
2018-05-13T09:22:57.105Z,63.58
2018-05-13T09:25:27.371Z,60.72
2018-05-13T09:27:58.189Z,59.13
2018-05-13T09:30:31.119Z,61.30
2018-05-13T09:33:00.857Z,57.88
2018-05-13T09:35:30.759Z,58.80
2018-05-13T09:38:01.320Z,60.40
2018-05-13T09:40:32.552Z,58.63
2018-05-13T09:43:04.672Z,59.67
2018-05-13T09:45:34.922Z,57.25
2018-05-13T09:48:05.392Z,57.35
2018-05-13T09:50:45.235Z,56.83
2018-05-13T09:53:16.072Z,58.55
2018-05-13T09:55:45.824Z,59.05
2018-05-13T09:58:15.604Z,57.20
2018-05-13T10:00:45.490Z,56.70
2018-05-13T10:03:23.191Z,56.08
2018-05-13T10:16:05.271Z,52.13
2018-05-13T10:18:36.294Z,52.72
2018-05-13T10:21:05.919Z,50.97
2018-05-13T10:23:37.597Z,48.35
2018-05-13T10:26:07.005Z,49.80
2018-05-13T10:28:38.202Z,50.33
2018-05-13T10:31:08.213Z,47.30
2018-05-13T10:33:38.594Z,48.08
2018-05-13T10:36:10.501Z,45.75
2018-05-13T10:38:40.276Z,50.95
2018-05-13T10:41:11.168Z,48.15
2018-05-13T10:43:42.949Z,51.42
2018-05-13T10:46:15.947Z,49.95
2018-05-13T10:48:45.914Z,47.62
2018-05-13T10:51:15.528Z,53.90
2018-05-13T10:53:54.705Z,46.45
2018-05-13T10:56:32.254Z,48.20
2018-05-13T10:59:02.491Z,49.25
2018-05-13T11:01:31.800Z,47.50
2018-05-13T11:04:09.429Z,45.75
2018-05-13T11:06:46.994Z,47.70
2018-05-13T11:09:17.891Z,47.90
2018-05-13T11:11:49.951Z,46.70
2018-05-13T11:14:19.773Z,48.50
2018-05-13T11:16:50.282Z,45.97
2018-05-13T11:19:21.259Z,47.58
2018-05-13T11:21:50.783Z,46.95
2018-05-13T11:24:28.314Z,48.47
2018-05-13T11:27:05.898Z,47.90
2018-05-13T11:29:38.630Z,44.25
2018-05-13T11:32:09.856Z,45.75
2018-05-13T11:34:39.185Z,45.35
2018-05-13T11:37:10.099Z,43.55
2018-05-13T11:39:42.261Z,41.63
2018-05-13T11:42:12.188Z,43.87
2018-05-13T11:44:48.438Z,44.08
2018-05-13T11:47:20.521Z,43.90
2018-05-13T11:49:52.719Z,40.35
2018-05-13T11:52:25.354Z,40.83
2018-05-13T11:54:54.978Z,38.72
2018-05-13T11:57:26.921Z,40.17
2018-05-13T11:59:56.940Z,38.05
2018-05-13T12:02:29.586Z,37.53
2018-05-13T12:04:59.556Z,36.47
2018-05-13T12:07:37.454Z,38.42
2018-05-13T12:10:16.720Z,38.90
2018-05-13T12:12:45.779Z,37.70
2018-05-13T12:15:28.801Z,37.30
2018-05-13T12:18:07.586Z,36.67
2018-05-13T12:20:43.775Z,37.35
2018-05-13T12:23:27.201Z,35.72
2018-05-13T12:26:04.546Z,36.15
2018-05-13T12:28:40.140Z,35.05
2018-05-13T12:31:10.260Z,37.00
2018-05-13T12:33:41.423Z,36.65
2018-05-13T12:36:21.758Z,36.40
2018-05-13T12:39:04.336Z,39.92
2018-05-13T12:41:35.419Z,37.05
2018-05-13T12:44:05.387Z,37.33
2018-05-13T12:46:35.496Z,37.17
2018-05-13T12:49:05.115Z,36.08
2018-05-13T12:51:34.911Z,38.35
2018-05-13T12:54:07.826Z,35.88
2018-05-13T12:56:38.159Z,40.38
2018-05-13T12:59:08.450Z,37.17
2018-05-13T13:01:40.737Z,39.72
2018-05-13T13:04:12.834Z,39.70
2018-05-13T13:06:43.282Z,38.88
2018-05-13T13:09:13.273Z,40.20
2018-05-13T13:11:43.567Z,43.60
2018-05-13T13:14:13.129Z,43.00
2018-05-13T13:16:45.002Z,40.05
2018-05-13T13:19:15.480Z,43.03
2018-05-13T13:21:46.533Z,43.75
2018-05-13T13:24:17.683Z,42.25
2018-05-13T13:26:47.432Z,41.35
2018-05-13T13:29:20.498Z,43.78
2018-05-13T13:31:50.711Z,40.92
2018-05-13T13:34:20.640Z,40.05
2018-05-13T13:36:50.263Z,42.72
2018-05-13T13:39:21.056Z,42.95
2018-05-13T13:41:50.947Z,43.45
2018-05-13T13:44:20.661Z,46.53
2018-05-13T13:46:51.880Z,43.40
2018-05-13T13:49:22.194Z,44.80
2018-05-13T13:51:53.742Z,45.35
2018-05-13T13:54:24.623Z,45.35
2018-05-13T13:56:54.213Z,47.13
2018-05-13T13:59:26.175Z,49.13
2018-05-13T14:01:59.002Z,47.05
2018-05-13T14:04:31.075Z,46.33
2018-05-13T14:07:03.140Z,47.53
2018-05-13T14:09:33.476Z,45.30
2018-05-13T14:12:06.468Z,46.22
2018-05-13T14:14:39.236Z,48.13
2018-05-13T14:17:11.427Z,45.53
2018-05-13T14:19:41.296Z,49.45
2018-05-13T14:22:11.437Z,48.30
2018-05-13T14:24:42.175Z,51.33
2018-05-13T14:27:12.472Z,49.00
2018-05-13T14:29:42.287Z,46.13
2018-05-13T14:32:12.841Z,44.65
2018-05-13T14:34:43.243Z,42.65
2018-05-13T14:37:16.184Z,46.92
2018-05-13T14:39:45.932Z,43.63
2018-05-13T14:42:16.039Z,46.05
2018-05-13T14:44:45.702Z,42.88
2018-05-13T14:47:17.682Z,40.65
2018-05-13T14:49:48.726Z,42.10
2018-05-13T14:52:18.426Z,45.05
2018-05-13T14:54:52.020Z,42.17
2018-05-13T14:57:22.236Z,43.47
2018-05-13T14:59:55.553Z,46.45
2018-05-13T15:02:26.287Z,43.58
2018-05-13T15:04:58.649Z,45.87
2018-05-13T15:07:32.730Z,45.00
2018-05-13T15:10:04.974Z,42.45
2018-05-13T15:12:35.424Z,42.03
2018-05-13T15:15:07.513Z,45.30
2018-05-13T15:17:40.554Z,42.45
2018-05-13T15:20:11.347Z,43.95
2018-05-13T15:22:41.955Z,44.85
2018-05-13T15:25:11.695Z,40.10
2018-05-13T15:27:43.249Z,41.10
2018-05-13T15:30:15.191Z,40.15
2018-05-13T15:32:46.026Z,40.92
2018-05-13T15:35:16.623Z,39.80
2018-05-13T15:37:46.287Z,41.47
2018-05-13T15:40:15.929Z,37.33
2018-05-13T15:42:47.965Z,39.50
2018-05-13T15:45:18.927Z,35.97
2018-05-13T15:47:49.052Z,37.13
2018-05-13T15:50:20.290Z,35.85
2018-05-13T15:52:52.250Z,37.10
2018-05-13T15:55:24.469Z,35.00
2018-05-13T15:57:54.794Z,34.33
2018-05-13T16:00:26.551Z,32.97
2018-05-13T16:02:57.282Z,33.67
2018-05-13T16:05:30.004Z,31.87
2018-05-13T16:08:00.799Z,31.52
2018-05-13T16:10:32.440Z,33.88
2018-05-13T16:13:03.935Z,32.50
2018-05-13T16:15:33.839Z,29.03
2018-05-13T16:18:03.853Z,29.83
2018-05-13T16:20:36.505Z,30.30
2018-05-13T16:23:07.783Z,30.08
2018-05-13T16:25:39.726Z,33.15
2018-05-13T16:28:12.782Z,31.45
2018-05-13T16:30:43.060Z,33.67
2018-05-13T16:33:15.107Z,30.37
2018-05-13T16:35:45.330Z,32.72
2018-05-13T16:38:18.331Z,32.78
2018-05-13T16:40:51.164Z,34.70
2018-05-13T16:43:21.983Z,33.03
2018-05-13T16:45:51.917Z,30.52
2018-05-13T16:48:22.028Z,36.20
2018-05-13T16:50:54.776Z,34.15
2018-05-13T16:53:27.862Z,35.55
2018-05-13T16:55:57.576Z,35.55
2018-05-13T16:58:27.374Z,34.72
2018-05-13T17:01:01.151Z,35.67
2018-05-13T17:03:31.377Z,35.70
2018-05-13T17:06:04.382Z,38.40
2018-05-13T17:08:34.646Z,37.75
2018-05-13T17:11:06.877Z,37.72
2018-05-13T17:13:39.570Z,37.03
2018-05-13T17:16:11.410Z,40.45
2018-05-13T17:18:42.483Z,39.90
2018-05-13T17:21:15.295Z,39.15
2018-05-13T17:23:45.438Z,43.75
2018-05-13T17:26:17.473Z,45.30
2018-05-13T17:28:48.807Z,46.80
2018-05-13T17:31:19.078Z,44.58
2018-05-13T17:33:52.291Z,44.20
2018-05-13T17:36:26.436Z,46.50
2018-05-13T17:38:56.827Z,48.25
2018-05-13T17:41:27.222Z,46.70
2018-05-13T17:43:57.609Z,46.42
2018-05-13T17:46:27.692Z,44.28
2018-05-13T17:48:58.455Z,40.70
2018-05-13T17:51:28.174Z,44.45
2018-05-13T17:53:58.023Z,44.45
2018-05-13T17:56:28.530Z,42.67
2018-05-13T17:58:58.686Z,43.20
2018-05-13T18:01:31.867Z,42.90
2018-05-13T18:04:01.585Z,43.17
2018-05-13T18:06:32.253Z,43.13
2018-05-13T18:09:02.719Z,43.25
2018-05-13T18:11:33.624Z,44.08
2018-05-13T18:14:05.428Z,44.40
2018-05-13T18:16:35.270Z,46.33
2018-05-13T18:19:06.475Z,43.50
2018-05-13T18:21:39.679Z,41.58
2018-05-13T18:24:10.346Z,44.33
2018-05-13T18:26:40.734Z,41.17
2018-05-13T18:29:10.466Z,41.83
2018-05-13T18:31:42.138Z,41.85
2018-05-13T18:34:14.207Z,40.08
2018-05-13T18:36:44.376Z,39.30
2018-05-13T18:39:14.869Z,37.63
2018-05-13T18:41:44.896Z,38.63
2018-05-13T18:44:17.704Z,40.63
2018-05-13T18:46:48.123Z,39.70
2018-05-13T18:49:17.876Z,40.15
2018-05-13T18:51:48.680Z,40.53
2018-05-13T18:54:20.614Z,38.25
2018-05-13T18:56:52.534Z,40.38
2018-05-13T18:59:23.647Z,41.03
2018-05-13T19:01:53.435Z,39.28
2018-05-13T19:04:23.734Z,42.13
2018-05-13T19:06:55.852Z,36.90
2018-05-13T19:09:27.548Z,39.50
2018-05-13T19:11:57.806Z,38.25
2018-05-13T19:14:27.638Z,38.03
2018-05-13T19:16:59.970Z,38.88
2018-05-13T19:19:31.767Z,40.17
2018-05-13T19:22:01.471Z,40.03
2018-05-13T19:24:33.550Z,40.47
2018-05-13T19:27:05.997Z,38.60
2018-05-13T19:29:36.784Z,37.63
2018-05-13T19:32:08.396Z,39.90
2018-05-13T19:34:38.945Z,39.72
2018-05-13T19:37:09.325Z,39.08
2018-05-13T19:39:41.440Z,39.10
2018-05-13T19:42:14.288Z,37.05
2018-05-13T19:44:44.517Z,39.05
2018-05-13T19:47:16.107Z,36.90
2018-05-13T19:49:47.024Z,36.60
2018-05-13T19:52:18.467Z,36.33
2018-05-13T19:54:50.470Z,36.30
2018-05-13T19:57:20.811Z,37.50
2018-05-13T19:59:52.896Z,36.95
2018-05-13T20:02:23.233Z,35.05
2018-05-13T20:04:53.702Z,35.15
2018-05-13T20:07:26.593Z,34.92
2018-05-13T20:09:58.155Z,34.70
2018-05-13T20:12:31.545Z,35.22
2018-05-13T20:15:04.445Z,35.65
2018-05-13T20:17:36.699Z,36.15
2018-05-13T20:20:07.833Z,33.88
2018-05-13T20:22:58.503Z,34.33
2018-05-13T20:25:28.252Z,32.97
2018-05-13T20:27:58.994Z,34.97
2018-05-13T20:30:28.756Z,35.10
2018-05-13T20:32:58.495Z,34.28
2018-05-13T20:35:30.599Z,35.78
2018-05-13T20:38:02.399Z,34.13
2018-05-13T20:40:32.128Z,33.03
2018-05-13T20:43:04.367Z,36.13
2018-05-13T20:45:34.139Z,35.47
2018-05-13T20:48:03.961Z,37.20
2018-05-13T20:50:35.747Z,34.58
2018-05-13T20:53:05.339Z,32.70
2018-05-13T20:55:35.915Z,36.20
2018-05-13T20:58:06.385Z,34.65
2018-05-13T21:00:36.683Z,37.80
2018-05-13T21:03:07.163Z,35.97
2018-05-13T21:05:37.341Z,36.97
2018-05-13T21:08:09.141Z,37.80
2018-05-13T21:10:38.825Z,37.13
2018-05-13T21:13:08.566Z,37.72
2018-05-13T21:15:40.771Z,36.35
2018-05-13T21:18:12.997Z,38.03
2018-05-13T21:20:43.577Z,38.63
2018-05-13T21:23:14.606Z,42.17
2018-05-13T21:25:45.691Z,39.20
2018-05-13T21:28:16.617Z,39.70
2018-05-13T21:30:46.941Z,38.10
2018-05-13T21:33:19.023Z,40.58
2018-05-13T21:35:50.993Z,36.40
2018-05-13T21:38:23.009Z,38.45
2018-05-13T21:40:55.871Z,38.40
2018-05-13T21:43:25.635Z,41.05
2018-05-13T21:45:55.646Z,40.67
2018-05-13T21:48:25.375Z,42.05
2018-05-13T21:50:55.180Z,42.17
2018-05-13T21:53:25.491Z,43.55
2018-05-13T21:55:57.251Z,43.00
2018-05-13T21:58:27.018Z,45.67
2018-05-13T22:00:59.286Z,41.13
2018-05-13T22:03:30.937Z,44.03
2018-05-13T22:06:01.800Z,39.75
2018-05-13T22:08:33.910Z,44.63
2018-05-13T22:11:04.340Z,46.95
2018-05-13T22:13:35.201Z,45.30
2018-05-13T22:16:07.255Z,46.65
2018-05-13T22:18:36.984Z,43.90
2018-05-13T22:21:06.780Z,45.45
2018-05-13T22:23:39.185Z,45.25
2018-05-13T22:26:11.946Z,44.47
2018-05-13T22:28:42.800Z,46.65
2018-05-13T22:31:13.359Z,46.58
2018-05-13T22:33:43.759Z,47.10
2018-05-13T22:36:14.346Z,47.65
2018-05-13T22:38:44.058Z,44.80
2018-05-13T22:41:13.783Z,47.83
2018-05-13T22:43:43.650Z,49.45
2018-05-13T22:46:15.760Z,46.28
2018-05-13T22:48:47.568Z,49.08
2018-05-13T22:51:19.093Z,48.03
2018-05-13T22:53:51.696Z,46.88
2018-05-13T22:56:22.024Z,49.67
2018-05-13T22:58:53.831Z,51.30
2018-05-13T23:01:26.223Z,52.17
2018-05-13T23:03:57.971Z,50.78
2018-05-13T23:06:32.850Z,53.15
2018-05-13T23:09:02.527Z,53.55
2018-05-13T23:11:34.966Z,54.35
2018-05-13T23:14:04.915Z,55.47
2018-05-13T23:16:36.357Z,58.35
2018-05-13T23:19:06.051Z,55.72
2018-05-13T23:21:37.666Z,57.75
2018-05-13T23:24:09.571Z,57.45
2018-05-13T23:26:41.224Z,52.42
2018-05-13T23:29:13.055Z,58.10
2018-05-13T23:31:43.047Z,58.63
2018-05-13T23:34:15.031Z,58.63
2018-05-13T23:36:47.051Z,57.95
2018-05-13T23:39:19.673Z,59.15
2018-05-13T23:41:51.905Z,59.67
2018-05-13T23:44:25.167Z,62.03
2018-05-13T23:46:55.466Z,60.80
2018-05-13T23:49:26.378Z,59.85
2018-05-13T23:51:57.304Z,59.67
2018-05-13T23:54:29.869Z,62.25
2018-05-13T23:57:02.697Z,63.70
2018-05-13T23:59:32.922Z,65.12
